GAF851 EDDK-CYQX
Flight info
| Callsign | GAF851 |
|---|---|
| Flight time | 5h 45m |
| Altitude | 24000 |
| Route | WIPUR1K WIPUR P64 SONEB/N0458F340 P64 TENLI L602 FLEVO L980 PAM DCT NOGRO/N0452F360 M40 SABER L980 MANGO DCT ENHAQ DCT GAJIT DCT BAPHU DCT ARKIL/M080F360 DCT RODEL DCT 5130N02000W/M080F380 52N030W 52N040W 50N050W/M080F360 DCT ELSIR/N0466F360 DCT YQX DCT |
| Aircraft | A319/M-SDE1E2E3FGHIJ2J3J5M1P2RUWXYZ/LB1D1 |
Departure
| Time | 2026-04-26 09:13 |
|---|---|
| Airport | Cologne Bonn Airport (EDDK) |
Arrival
| Time | 2026-04-26 14:58 |
|---|---|
| Airport | Gander International Airport (CYQX) |
| Time | Latitude | Longitude | Altitude | Speed | Heading |
|---|---|---|---|---|---|
| 2026-04-26 08:43 | 50.86213 | 7.12008 | 233 ft | 0 kts | 210° |
| 2026-04-26 08:56 | 50.86212 | 7.12008 | 232 ft | 0 kts | 210° |
| 2026-04-26 08:57 | 50.86213 | 7.12008 | 232 ft | 0 kts | 210° |
| 2026-04-26 09:01 | 50.86212 | 7.12008 | 232 ft | 0 kts | 210° |
| 2026-04-26 09:01 | 50.86213 | 7.12008 | 232 ft | 0 kts | 210° |
| 2026-04-26 09:04 | 50.86218 | 7.12013 | 232 ft | 4 kts | 211° |
| 2026-04-26 09:04 | 50.86241 | 7.12036 | 234 ft | 4 kts | 214° |
| 2026-04-26 09:05 | 50.86263 | 7.12061 | 232 ft | 4 kts | 218° |
| 2026-04-26 09:05 | 50.86283 | 7.12088 | 235 ft | 4 kts | 222° |
| 2026-04-26 09:05 | 50.86303 | 7.12118 | 234 ft | 4 kts | 229° |
| 2026-04-26 09:05 | 50.86319 | 7.12152 | 236 ft | 4 kts | 247° |
| 2026-04-26 09:06 | 50.86325 | 7.12183 | 234 ft | 4 kts | 250° |
| 2026-04-26 09:06 | 50.86336 | 7.12222 | 236 ft | 4 kts | 238° |
| 2026-04-26 09:06 | 50.86352 | 7.12256 | 235 ft | 4 kts | 219° |
| 2026-04-26 09:06 | 50.86375 | 7.12274 | 235 ft | 4 kts | 175° |
| 2026-04-26 09:07 | 50.86381 | 7.12273 | 235 ft | 1 kts | 165° |
| 2026-04-26 09:09 | 50.86380 | 7.12274 | 232 ft | 1 kts | 165° |
| 2026-04-26 09:09 | 50.86362 | 7.12281 | 235 ft | 6 kts | 165° |
| 2026-04-26 09:10 | 50.86314 | 7.12302 | 232 ft | 9 kts | 165° |
| 2026-04-26 09:10 | 50.86248 | 7.12329 | 232 ft | 11 kts | 165° |
| 2026-04-26 09:10 | 50.86178 | 7.12344 | 236 ft | 8 kts | 169° |
| 2026-04-26 09:10 | 50.86172 | 7.12347 | 238 ft | 0 kts | 167° |
| 2026-04-26 09:11 | 50.86158 | 7.12351 | 235 ft | 6 kts | 168° |
| 2026-04-26 09:11 | 50.86116 | 7.12366 | 237 ft | 7 kts | 166° |
| 2026-04-26 09:12 | 50.86070 | 7.12384 | 239 ft | 7 kts | 167° |
| 2026-04-26 09:12 | 50.86025 | 7.12432 | 239 ft | 8 kts | 82° |
| 2026-04-26 09:12 | 50.86033 | 7.12450 | 239 ft | 3 kts | 63° |
| 2026-04-26 09:12 | 50.86130 | 7.12765 | 243 ft | 70 kts | 64° |
| 2026-04-26 09:13 | 50.86442 | 7.13801 | 256 ft | 136 kts | 64° |
| 2026-04-26 09:13 | 50.86881 | 7.15269 | 722 ft | 147 kts | 65° |
| 2026-04-26 09:13 | 50.87308 | 7.16705 | 1497 ft | 142 kts | 65° |
| 2026-04-26 09:13 | 50.87721 | 7.18102 | 2070 ft | 143 kts | 65° |
| 2026-04-26 09:14 | 50.88169 | 7.19631 | 2377 ft | 164 kts | 65° |
| 2026-04-26 09:14 | 50.88683 | 7.21385 | 2763 ft | 186 kts | 65° |
| 2026-04-26 09:14 | 50.89265 | 7.23374 | 3092 ft | 213 kts | 65° |
| 2026-04-26 09:14 | 50.89928 | 7.25629 | 3589 ft | 238 kts | 64° |
| 2026-04-26 09:15 | 50.90655 | 7.28109 | 4291 ft | 255 kts | 64° |
| 2026-04-26 09:15 | 50.91417 | 7.30691 | 5273 ft | 262 kts | 62° |
| 2026-04-26 09:15 | 50.92521 | 7.32975 | 6162 ft | 264 kts | 37° |
| 2026-04-26 09:15 | 50.94172 | 7.34198 | 7068 ft | 264 kts | 8° |
| 2026-04-26 09:16 | 50.96000 | 7.34042 | 8068 ft | 267 kts | 342° |
| 2026-04-26 09:16 | 50.97727 | 7.32931 | 9010 ft | 269 kts | 336° |
| 2026-04-26 09:16 | 50.99456 | 7.31733 | 9981 ft | 274 kts | 336° |
| 2026-04-26 09:16 | 51.01217 | 7.30505 | 10675 ft | 284 kts | 336° |
| 2026-04-26 09:17 | 51.03083 | 7.29209 | 10962 ft | 308 kts | 336° |
| 2026-04-26 09:17 | 51.05082 | 7.27684 | 11149 ft | 331 kts | 329° |
| 2026-04-26 09:17 | 51.07043 | 7.25541 | 11412 ft | 350 kts | 324° |
| 2026-04-26 09:17 | 51.09046 | 7.23279 | 11972 ft | 357 kts | 324° |
| 2026-04-26 09:18 | 51.11084 | 7.20979 | 12641 ft | 362 kts | 324° |
| 2026-04-26 09:18 | 51.13149 | 7.18647 | 13291 ft | 366 kts | 324° |
| 2026-04-26 09:18 | 51.15246 | 7.16282 | 13924 ft | 371 kts | 324° |
| 2026-04-26 09:18 | 51.17362 | 7.13892 | 14530 ft | 375 kts | 324° |
| 2026-04-26 09:19 | 51.19504 | 7.11468 | 15163 ft | 379 kts | 324° |
| 2026-04-26 09:19 | 51.21665 | 7.09022 | 15764 ft | 382 kts | 324° |
| 2026-04-26 09:19 | 51.23841 | 7.06555 | 16391 ft | 386 kts | 324° |
| 2026-04-26 09:19 | 51.26037 | 7.04063 | 17016 ft | 389 kts | 324° |
| 2026-04-26 09:20 | 51.28253 | 7.01544 | 17625 ft | 393 kts | 324° |
| 2026-04-26 09:20 | 51.30491 | 6.98995 | 18247 ft | 396 kts | 324° |
| 2026-04-26 09:20 | 51.32742 | 6.96425 | 18815 ft | 400 kts | 323° |
| 2026-04-26 09:20 | 51.35011 | 6.93833 | 19326 ft | 403 kts | 323° |
| 2026-04-26 09:21 | 51.37296 | 6.91232 | 19844 ft | 405 kts | 324° |
| 2026-04-26 09:21 | 51.39764 | 6.88998 | 20333 ft | 410 kts | 334° |
| 2026-04-26 09:21 | 51.42467 | 6.87472 | 20836 ft | 415 kts | 345° |
| 2026-04-26 09:21 | 51.45328 | 6.86707 | 21285 ft | 419 kts | 352° |
| 2026-04-26 09:22 | 51.48237 | 6.86206 | 21741 ft | 422 kts | 352° |
| 2026-04-26 09:22 | 51.51169 | 6.85687 | 22178 ft | 425 kts | 352° |
| 2026-04-26 09:22 | 51.54121 | 6.85162 | 22613 ft | 428 kts | 352° |
| 2026-04-26 09:22 | 51.57087 | 6.84630 | 23033 ft | 431 kts | 352° |
| 2026-04-26 09:23 | 51.60078 | 6.84089 | 23314 ft | 432 kts | 352° |
| 2026-04-26 09:23 | 51.63064 | 6.83545 | 23593 ft | 434 kts | 352° |
| 2026-04-26 09:23 | 51.66071 | 6.82996 | 23868 ft | 436 kts | 352° |
| 2026-04-26 09:23 | 51.69093 | 6.82448 | 24109 ft | 437 kts | 352° |
| 2026-04-26 09:24 | 51.72117 | 6.81904 | 24297 ft | 439 kts | 352° |
| 2026-04-26 09:24 | 51.75162 | 6.81356 | 24350 ft | 439 kts | 352° |
| 2026-04-26 09:24 | 51.78203 | 6.80810 | 24363 ft | 439 kts | 352° |
| 2026-04-26 09:24 | 51.81237 | 6.80265 | 24361 ft | 439 kts | 352° |
| 2026-04-26 09:25 | 51.84269 | 6.79722 | 24360 ft | 439 kts | 352° |
| 2026-04-26 09:25 | 51.87290 | 6.79082 | 24354 ft | 438 kts | 346° |
| 2026-04-26 09:25 | 51.90146 | 6.77422 | 24587 ft | 437 kts | 330° |
| 2026-04-26 09:25 | 51.92619 | 6.74596 | 24904 ft | 436 kts | 315° |
| 2026-04-26 09:26 | 51.94517 | 6.70786 | 25233 ft | 436 kts | 299° |
| 2026-04-26 09:26 | 51.95675 | 6.66334 | 25555 ft | 437 kts | 284° |
| 2026-04-26 09:26 | 51.96043 | 6.61451 | 25890 ft | 438 kts | 269° |
| 2026-04-26 09:26 | 51.95971 | 6.56509 | 26214 ft | 440 kts | 268° |
| 2026-04-26 09:27 | 51.95887 | 6.51534 | 26547 ft | 442 kts | 268° |
| 2026-04-26 09:27 | 51.95798 | 6.46543 | 26879 ft | 444 kts | 268° |
| 2026-04-26 09:27 | 51.95710 | 6.41525 | 27191 ft | 446 kts | 268° |
| 2026-04-26 09:27 | 51.95624 | 6.36493 | 27504 ft | 448 kts | 268° |
| 2026-04-26 09:28 | 51.95536 | 6.31373 | 27823 ft | 449 kts | 268° |
| 2026-04-26 09:28 | 51.95448 | 6.26360 | 28126 ft | 451 kts | 268° |
| 2026-04-26 09:28 | 51.95377 | 6.21276 | 28430 ft | 453 kts | 269° |
| 2026-04-26 09:28 | 51.95398 | 6.16169 | 28856 ft | 452 kts | 271° |
| 2026-04-26 09:29 | 51.95489 | 6.11092 | 29305 ft | 450 kts | 272° |
| 2026-04-26 09:29 | 51.95609 | 6.06022 | 29765 ft | 449 kts | 272° |
| 2026-04-26 09:29 | 51.95730 | 6.00971 | 30223 ft | 448 kts | 272° |
| 2026-04-26 09:29 | 51.95836 | 5.95928 | 30645 ft | 447 kts | 271° |
| 2026-04-26 09:30 | 51.95925 | 5.90902 | 31037 ft | 446 kts | 271° |
| 2026-04-26 09:30 | 51.95999 | 5.85879 | 31432 ft | 444 kts | 271° |
| 2026-04-26 09:30 | 51.96061 | 5.80869 | 31833 ft | 443 kts | 271° |
| 2026-04-26 09:30 | 51.96117 | 5.75887 | 32248 ft | 442 kts | 271° |
| 2026-04-26 09:31 | 51.96172 | 5.70918 | 32660 ft | 440 kts | 271° |
| 2026-04-26 09:31 | 51.96224 | 5.65984 | 33065 ft | 439 kts | 271° |
| 2026-04-26 09:31 | 51.96274 | 5.61036 | 33476 ft | 438 kts | 271° |
| 2026-04-26 09:31 | 51.96323 | 5.56393 | 33874 ft | 437 kts | 271° |
| 2026-04-26 09:32 | 51.96377 | 5.51465 | 34259 ft | 436 kts | 271° |
| 2026-04-26 09:32 | 51.96487 | 5.41649 | 34350 ft | 434 kts | 271° |
| 2026-04-26 09:33 | 51.96582 | 5.31876 | 34354 ft | 433 kts | 271° |
| 2026-04-26 09:33 | 51.96665 | 5.22168 | 34352 ft | 433 kts | 271° |
| 2026-04-26 09:34 | 51.96734 | 5.12536 | 34353 ft | 433 kts | 271° |
| 2026-04-26 09:34 | 51.96802 | 5.02783 | 34352 ft | 432 kts | 271° |
| 2026-04-26 09:35 | 51.96865 | 4.93037 | 34348 ft | 432 kts | 271° |
| 2026-04-26 09:35 | 51.96918 | 4.83303 | 34344 ft | 431 kts | 271° |
| 2026-04-26 09:36 | 51.96954 | 4.75151 | 34343 ft | 431 kts | 271° |
| 2026-04-26 09:36 | 51.96993 | 4.63861 | 34346 ft | 431 kts | 271° |
| 2026-04-26 09:37 | 51.97021 | 4.54139 | 34347 ft | 431 kts | 271° |
| 2026-04-26 09:37 | 51.97039 | 4.46002 | 34349 ft | 431 kts | 271° |
| 2026-04-26 09:38 | 51.97054 | 4.36302 | 34352 ft | 430 kts | 271° |
| 2026-04-26 09:38 | 51.97062 | 4.26600 | 34356 ft | 430 kts | 271° |
| 2026-04-26 09:39 | 51.97061 | 4.16913 | 34361 ft | 429 kts | 271° |
| 2026-04-26 09:39 | 51.97046 | 4.07251 | 34359 ft | 428 kts | 271° |
| 2026-04-26 09:40 | 51.97028 | 3.97590 | 34360 ft | 428 kts | 271° |
| 2026-04-26 09:40 | 51.97003 | 3.88009 | 34362 ft | 428 kts | 271° |
| 2026-04-26 09:41 | 51.96964 | 3.78363 | 34361 ft | 427 kts | 271° |
| 2026-04-26 09:41 | 51.96915 | 3.68720 | 34363 ft | 427 kts | 271° |
| 2026-04-26 09:42 | 51.96870 | 3.59102 | 34365 ft | 427 kts | 271° |
| 2026-04-26 09:42 | 51.96817 | 3.49480 | 34364 ft | 426 kts | 271° |
| 2026-04-26 09:43 | 51.96744 | 3.39870 | 34367 ft | 426 kts | 271° |
| 2026-04-26 09:43 | 51.96671 | 3.30273 | 34369 ft | 426 kts | 271° |
| 2026-04-26 09:44 | 51.96593 | 3.20673 | 34366 ft | 426 kts | 271° |
| 2026-04-26 09:44 | 51.96164 | 3.11073 | 34647 ft | 428 kts | 266° |
| 2026-04-26 09:44 | 51.95849 | 3.06271 | 34979 ft | 427 kts | 266° |
| 2026-04-26 09:45 | 51.95539 | 3.01490 | 35320 ft | 426 kts | 266° |
| 2026-04-26 09:45 | 51.95225 | 2.96705 | 35653 ft | 426 kts | 266° |
| 2026-04-26 09:45 | 51.94913 | 2.91925 | 35981 ft | 426 kts | 266° |
| 2026-04-26 09:45 | 51.94604 | 2.87226 | 36281 ft | 426 kts | 266° |
| 2026-04-26 09:46 | 51.94286 | 2.82452 | 36364 ft | 425 kts | 266° |
| 2026-04-26 09:46 | 51.93649 | 2.72931 | 36368 ft | 425 kts | 266° |
| 2026-04-26 09:47 | 51.92999 | 2.63432 | 36368 ft | 425 kts | 266° |
| 2026-04-26 09:47 | 51.92346 | 2.53919 | 36367 ft | 424 kts | 266° |
| 2026-04-26 09:48 | 51.91694 | 2.44433 | 36366 ft | 424 kts | 266° |
| 2026-04-26 09:48 | 51.91028 | 2.34953 | 36366 ft | 424 kts | 266° |
| 2026-04-26 09:49 | 51.90531 | 2.25459 | 36361 ft | 422 kts | 269° |
| 2026-04-26 09:49 | 51.90360 | 2.15976 | 36361 ft | 421 kts | 271° |
| 2026-04-26 09:50 | 51.90229 | 2.06484 | 36359 ft | 421 kts | 270° |
| 2026-04-26 09:50 | 51.90023 | 1.97001 | 36359 ft | 421 kts | 270° |
| 2026-04-26 09:51 | 51.89486 | 1.87546 | 36361 ft | 424 kts | 259° |
| 2026-04-26 09:51 | 51.87709 | 1.78407 | 36363 ft | 426 kts | 254° |
| 2026-04-26 09:52 | 51.85853 | 1.69301 | 36362 ft | 426 kts | 255° |
| 2026-04-26 09:52 | 51.83069 | 1.55662 | 36361 ft | 426 kts | 254° |
| 2026-04-26 09:53 | 51.81191 | 1.46589 | 36358 ft | 425 kts | 254° |
| 2026-04-26 09:53 | 51.79315 | 1.37533 | 36361 ft | 425 kts | 254° |
| 2026-04-26 09:54 | 51.77438 | 1.28489 | 36358 ft | 425 kts | 254° |
| 2026-04-26 09:54 | 51.75545 | 1.19430 | 36356 ft | 425 kts | 254° |
| 2026-04-26 09:55 | 51.73649 | 1.10399 | 36356 ft | 425 kts | 254° |
| 2026-04-26 09:55 | 51.71762 | 1.01438 | 36354 ft | 425 kts | 253° |
| 2026-04-26 09:56 | 51.70201 | 0.92289 | 36351 ft | 421 kts | 265° |
| 2026-04-26 09:56 | 51.69562 | 0.82927 | 36351 ft | 420 kts | 265° |
| 2026-04-26 09:57 | 51.68813 | 0.73595 | 36349 ft | 421 kts | 263° |
| 2026-04-26 09:57 | 51.67826 | 0.64294 | 36346 ft | 421 kts | 262° |
| 2026-04-26 09:58 | 51.66792 | 0.55038 | 36346 ft | 421 kts | 262° |
| 2026-04-26 09:58 | 51.65801 | 0.45811 | 36343 ft | 420 kts | 262° |
| 2026-04-26 09:59 | 51.64821 | 0.36471 | 36335 ft | 420 kts | 262° |
| 2026-04-26 09:59 | 51.63832 | 0.27182 | 36338 ft | 420 kts | 262° |
| 2026-04-26 10:00 | 51.62834 | 0.17911 | 36335 ft | 420 kts | 262° |
| 2026-04-26 10:00 | 51.61825 | 0.08651 | 36334 ft | 420 kts | 261° |
| 2026-04-26 10:01 | 51.60810 | -0.00608 | 36336 ft | 420 kts | 261° |
| 2026-04-26 10:01 | 51.59826 | -0.09553 | 36337 ft | 420 kts | 261° |
| 2026-04-26 10:02 | 51.58793 | -0.18865 | 36337 ft | 420 kts | 261° |
| 2026-04-26 10:02 | 51.57755 | -0.28105 | 36314 ft | 420 kts | 261° |
| 2026-04-26 10:03 | 51.56716 | -0.37337 | 36315 ft | 420 kts | 261° |
| 2026-04-26 10:03 | 51.55666 | -0.46566 | 36316 ft | 420 kts | 261° |
| 2026-04-26 10:04 | 51.54603 | -0.55806 | 36316 ft | 420 kts | 261° |
| 2026-04-26 10:04 | 51.53544 | -0.65031 | 36314 ft | 420 kts | 261° |
| 2026-04-26 10:05 | 51.52480 | -0.74245 | 36313 ft | 420 kts | 260° |
| 2026-04-26 10:05 | 51.51411 | -0.83422 | 36312 ft | 420 kts | 260° |
| 2026-04-26 10:06 | 51.50322 | -0.92631 | 36313 ft | 420 kts | 260° |
| 2026-04-26 10:06 | 51.49225 | -1.01838 | 36315 ft | 420 kts | 260° |
| 2026-04-26 10:07 | 51.48123 | -1.11056 | 36317 ft | 421 kts | 259° |
| 2026-04-26 10:07 | 51.47013 | -1.20274 | 36317 ft | 421 kts | 259° |
| 2026-04-26 10:08 | 51.45896 | -1.29480 | 36318 ft | 421 kts | 259° |
| 2026-04-26 10:08 | 51.44772 | -1.38691 | 36315 ft | 421 kts | 259° |
| 2026-04-26 10:09 | 51.43642 | -1.47887 | 36313 ft | 421 kts | 259° |
| 2026-04-26 10:09 | 51.42503 | -1.57100 | 36305 ft | 421 kts | 259° |
| 2026-04-26 10:10 | 51.41353 | -1.66285 | 36305 ft | 421 kts | 259° |
| 2026-04-26 10:10 | 51.39908 | -1.75356 | 36303 ft | 422 kts | 251° |
| 2026-04-26 10:11 | 51.37953 | -1.84210 | 36295 ft | 422 kts | 251° |
| 2026-04-26 10:11 | 51.36035 | -1.92866 | 36300 ft | 422 kts | 251° |
| 2026-04-26 10:12 | 51.34305 | -2.01825 | 36294 ft | 422 kts | 260° |
| 2026-04-26 10:12 | 51.33479 | -2.11107 | 36296 ft | 422 kts | 262° |
| 2026-04-26 10:13 | 51.32649 | -2.20408 | 36297 ft | 422 kts | 262° |
| 2026-04-26 10:13 | 51.31812 | -2.29707 | 36296 ft | 423 kts | 262° |
| 2026-04-26 10:14 | 51.30978 | -2.38947 | 36296 ft | 423 kts | 262° |
| 2026-04-26 10:14 | 51.30133 | -2.48246 | 36289 ft | 423 kts | 261° |
| 2026-04-26 10:15 | 51.29277 | -2.57540 | 36291 ft | 423 kts | 261° |
| 2026-04-26 10:15 | 51.28411 | -2.66837 | 36291 ft | 423 kts | 261° |
| 2026-04-26 10:16 | 51.27536 | -2.76132 | 36292 ft | 423 kts | 261° |
| 2026-04-26 10:16 | 51.26656 | -2.85434 | 36288 ft | 424 kts | 261° |
| 2026-04-26 10:17 | 51.25776 | -2.94732 | 36289 ft | 424 kts | 261° |
| 2026-04-26 10:17 | 51.24886 | -3.04038 | 36285 ft | 424 kts | 261° |
| 2026-04-26 10:18 | 51.23984 | -3.13330 | 36290 ft | 424 kts | 261° |
| 2026-04-26 10:18 | 51.23072 | -3.22629 | 36286 ft | 424 kts | 261° |
| 2026-04-26 10:19 | 51.22155 | -3.31930 | 36292 ft | 424 kts | 261° |
| 2026-04-26 10:19 | 51.21234 | -3.41231 | 36290 ft | 425 kts | 261° |
| 2026-04-26 10:20 | 51.20457 | -3.48970 | 36289 ft | 425 kts | 261° |
| 2026-04-26 10:20 | 51.19512 | -3.58281 | 36283 ft | 425 kts | 261° |
| 2026-04-26 10:21 | 51.18565 | -3.67584 | 36280 ft | 425 kts | 260° |
| 2026-04-26 10:21 | 51.17458 | -3.78392 | 36282 ft | 425 kts | 260° |
| 2026-04-26 10:22 | 51.16646 | -3.86191 | 36280 ft | 426 kts | 260° |
| 2026-04-26 10:22 | 51.15672 | -3.95484 | 36275 ft | 425 kts | 260° |
| 2026-04-26 10:23 | 51.14691 | -4.04789 | 36277 ft | 426 kts | 260° |
| 2026-04-26 10:23 | 51.13708 | -4.14085 | 36273 ft | 426 kts | 260° |
| 2026-04-26 10:24 | 51.12718 | -4.23370 | 36274 ft | 426 kts | 260° |
| 2026-04-26 10:24 | 51.11717 | -4.32657 | 36281 ft | 426 kts | 260° |
| 2026-04-26 10:25 | 51.10714 | -4.41873 | 36280 ft | 425 kts | 259° |
| 2026-04-26 10:25 | 51.09698 | -4.51140 | 36280 ft | 425 kts | 259° |
| 2026-04-26 10:26 | 51.08672 | -4.60411 | 36279 ft | 425 kts | 259° |
| 2026-04-26 10:26 | 51.07665 | -4.69465 | 36281 ft | 425 kts | 259° |
| 2026-04-26 10:27 | 51.06637 | -4.78705 | 36280 ft | 425 kts | 259° |
| 2026-04-26 10:27 | 51.05596 | -4.87966 | 36291 ft | 425 kts | 259° |
| 2026-04-26 10:28 | 51.04549 | -4.97199 | 36290 ft | 425 kts | 259° |
| 2026-04-26 10:28 | 51.03486 | -5.06431 | 36288 ft | 425 kts | 259° |
| 2026-04-26 10:29 | 51.02428 | -5.15651 | 36293 ft | 425 kts | 259° |
| 2026-04-26 10:29 | 51.01366 | -5.24827 | 36295 ft | 424 kts | 259° |
| 2026-04-26 10:30 | 51.00274 | -5.34042 | 36292 ft | 424 kts | 259° |
| 2026-04-26 10:30 | 50.99187 | -5.43226 | 36289 ft | 424 kts | 259° |
| 2026-04-26 10:31 | 50.98098 | -5.52424 | 36287 ft | 423 kts | 258° |
| 2026-04-26 10:31 | 50.97004 | -5.61596 | 36290 ft | 423 kts | 258° |
| 2026-04-26 10:32 | 50.95901 | -5.70762 | 36286 ft | 423 kts | 258° |
| 2026-04-26 10:32 | 50.94802 | -5.79858 | 36283 ft | 422 kts | 258° |
| 2026-04-26 10:33 | 50.93687 | -5.88998 | 36281 ft | 422 kts | 258° |
| 2026-04-26 10:33 | 50.92562 | -5.98139 | 36284 ft | 422 kts | 258° |
| 2026-04-26 10:34 | 50.91437 | -6.07275 | 36280 ft | 422 kts | 258° |
| 2026-04-26 10:34 | 50.90299 | -6.16406 | 36282 ft | 422 kts | 258° |
| 2026-04-26 10:35 | 50.89152 | -6.25534 | 36284 ft | 423 kts | 258° |
| 2026-04-26 10:35 | 50.88000 | -6.34664 | 36289 ft | 423 kts | 258° |
| 2026-04-26 10:36 | 50.86842 | -6.43786 | 36289 ft | 422 kts | 258° |
| 2026-04-26 10:36 | 50.85670 | -6.52900 | 36293 ft | 422 kts | 257° |
| 2026-04-26 10:37 | 50.84495 | -6.62001 | 36292 ft | 422 kts | 257° |
| 2026-04-26 10:37 | 50.83330 | -6.71001 | 36292 ft | 422 kts | 257° |
| 2026-04-26 10:38 | 50.82147 | -6.80082 | 36289 ft | 421 kts | 257° |
| 2026-04-26 10:38 | 50.80955 | -6.89158 | 36294 ft | 421 kts | 257° |
| 2026-04-26 10:39 | 50.79760 | -6.98231 | 36294 ft | 421 kts | 257° |
| 2026-04-26 10:39 | 50.78556 | -7.07295 | 36296 ft | 421 kts | 257° |
| 2026-04-26 10:40 | 50.77341 | -7.16346 | 36297 ft | 421 kts | 257° |
| 2026-04-26 10:40 | 50.76121 | -7.25382 | 36302 ft | 421 kts | 257° |
| 2026-04-26 10:41 | 50.74898 | -7.34414 | 36302 ft | 420 kts | 257° |
| 2026-04-26 10:41 | 50.73667 | -7.43437 | 36301 ft | 420 kts | 257° |
| 2026-04-26 10:42 | 50.72432 | -7.52434 | 36297 ft | 419 kts | 257° |
| 2026-04-26 10:42 | 50.71198 | -7.61372 | 36302 ft | 419 kts | 257° |
| 2026-04-26 10:43 | 50.69954 | -7.70352 | 36297 ft | 419 kts | 257° |
| 2026-04-26 10:43 | 50.68702 | -7.79318 | 36297 ft | 419 kts | 256° |
| 2026-04-26 10:44 | 50.67441 | -7.88274 | 36297 ft | 418 kts | 256° |
| 2026-04-26 10:44 | 50.66173 | -7.97227 | 36299 ft | 418 kts | 257° |
| 2026-04-26 10:45 | 50.65831 | -8.06384 | 36298 ft | 420 kts | 269° |
| 2026-04-26 10:45 | 50.65902 | -8.15585 | 36296 ft | 420 kts | 268° |
| 2026-04-26 10:46 | 50.65948 | -8.24796 | 36299 ft | 420 kts | 268° |
| 2026-04-26 10:46 | 50.65990 | -8.33987 | 36306 ft | 420 kts | 268° |
| 2026-04-26 10:47 | 50.66030 | -8.43189 | 36299 ft | 419 kts | 268° |
| 2026-04-26 10:47 | 50.66063 | -8.52362 | 36299 ft | 419 kts | 268° |
| 2026-04-26 10:48 | 50.66087 | -8.61509 | 36306 ft | 419 kts | 268° |
| 2026-04-26 10:48 | 50.66100 | -8.70766 | 36301 ft | 419 kts | 268° |
| 2026-04-26 10:49 | 50.66110 | -8.79903 | 36302 ft | 419 kts | 268° |
| 2026-04-26 10:49 | 50.66117 | -8.89093 | 36306 ft | 419 kts | 268° |
| 2026-04-26 10:50 | 50.66116 | -8.96730 | 36305 ft | 419 kts | 268° |
| 2026-04-26 10:50 | 50.66094 | -9.07457 | 36303 ft | 419 kts | 268° |
| 2026-04-26 10:51 | 50.66059 | -9.21230 | 36308 ft | 419 kts | 268° |
| 2026-04-26 10:52 | 50.66031 | -9.30415 | 36311 ft | 419 kts | 267° |
| 2026-04-26 10:52 | 50.65997 | -9.39592 | 36311 ft | 419 kts | 267° |
| 2026-04-26 10:53 | 50.65953 | -9.48759 | 36314 ft | 418 kts | 267° |
| 2026-04-26 10:53 | 50.65900 | -9.57928 | 36308 ft | 418 kts | 267° |
| 2026-04-26 10:54 | 50.65809 | -9.71668 | 36303 ft | 418 kts | 267° |
| 2026-04-26 10:54 | 50.65733 | -9.80824 | 36309 ft | 418 kts | 267° |
| 2026-04-26 10:55 | 50.65658 | -9.89972 | 36310 ft | 418 kts | 266° |
| 2026-04-26 10:55 | 50.65591 | -9.97587 | 36311 ft | 418 kts | 266° |
| 2026-04-26 10:56 | 50.65487 | -10.08074 | 36311 ft | 418 kts | 266° |
| 2026-04-26 10:56 | 50.65387 | -10.17219 | 36312 ft | 417 kts | 266° |
| 2026-04-26 10:57 | 50.65281 | -10.26373 | 36314 ft | 418 kts | 266° |
| 2026-04-26 10:57 | 50.65172 | -10.35522 | 36317 ft | 418 kts | 266° |
| 2026-04-26 10:58 | 50.65055 | -10.44671 | 36324 ft | 418 kts | 266° |
| 2026-04-26 10:58 | 50.64922 | -10.53823 | 36322 ft | 417 kts | 266° |
| 2026-04-26 10:59 | 50.64788 | -10.62963 | 36321 ft | 417 kts | 266° |
| 2026-04-26 10:59 | 50.64648 | -10.72094 | 36326 ft | 417 kts | 266° |
| 2026-04-26 11:00 | 50.64499 | -10.81241 | 36325 ft | 417 kts | 266° |
| 2026-04-26 11:00 | 50.64346 | -10.90368 | 36314 ft | 417 kts | 266° |
| 2026-04-26 11:01 | 50.64180 | -10.99483 | 36316 ft | 416 kts | 266° |
| 2026-04-26 11:01 | 50.64010 | -11.08607 | 36313 ft | 417 kts | 266° |
| 2026-04-26 11:02 | 50.63837 | -11.17736 | 36314 ft | 417 kts | 265° |
| 2026-04-26 11:02 | 50.63655 | -11.26815 | 36314 ft | 417 kts | 265° |
| 2026-04-26 11:03 | 50.63464 | -11.35955 | 36319 ft | 418 kts | 265° |
| 2026-04-26 11:03 | 50.63268 | -11.45162 | 36313 ft | 418 kts | 265° |
| 2026-04-26 11:04 | 50.63061 | -11.54246 | 36315 ft | 418 kts | 265° |
| 2026-04-26 11:04 | 50.62844 | -11.63390 | 36309 ft | 418 kts | 265° |
| 2026-04-26 11:05 | 50.62624 | -11.72549 | 36308 ft | 418 kts | 265° |
| 2026-04-26 11:05 | 50.62394 | -11.81708 | 36308 ft | 419 kts | 265° |
| 2026-04-26 11:06 | 50.62199 | -11.89325 | 36307 ft | 419 kts | 265° |
| 2026-04-26 11:06 | 50.61959 | -11.98496 | 36308 ft | 419 kts | 265° |
| 2026-04-26 11:07 | 50.61718 | -12.07679 | 36306 ft | 420 kts | 265° |
| 2026-04-26 11:07 | 50.61421 | -12.18355 | 36306 ft | 420 kts | 265° |
| 2026-04-26 11:08 | 50.61195 | -12.26049 | 36304 ft | 420 kts | 265° |
| 2026-04-26 11:08 | 50.60920 | -12.35244 | 36304 ft | 421 kts | 265° |
| 2026-04-26 11:09 | 50.60642 | -12.44395 | 36305 ft | 421 kts | 265° |
| 2026-04-26 11:09 | 50.60361 | -12.53601 | 36308 ft | 422 kts | 265° |
| 2026-04-26 11:10 | 50.60070 | -12.62819 | 36306 ft | 422 kts | 265° |
| 2026-04-26 11:10 | 50.59771 | -12.72044 | 36307 ft | 422 kts | 265° |
| 2026-04-26 11:11 | 50.59460 | -12.81281 | 36309 ft | 422 kts | 265° |
| 2026-04-26 11:11 | 50.59143 | -12.90514 | 36309 ft | 423 kts | 265° |
| 2026-04-26 11:12 | 50.58823 | -12.99751 | 36312 ft | 423 kts | 265° |
| 2026-04-26 11:12 | 50.58493 | -13.09011 | 36310 ft | 424 kts | 265° |
| 2026-04-26 11:13 | 50.58155 | -13.18261 | 36310 ft | 424 kts | 265° |
| 2026-04-26 11:13 | 50.57800 | -13.27522 | 36314 ft | 424 kts | 265° |
| 2026-04-26 11:14 | 50.57442 | -13.36791 | 36313 ft | 425 kts | 265° |
| 2026-04-26 11:14 | 50.57081 | -13.46077 | 36310 ft | 425 kts | 265° |
| 2026-04-26 11:15 | 50.56718 | -13.55359 | 36312 ft | 425 kts | 265° |
| 2026-04-26 11:15 | 50.56343 | -13.64640 | 36308 ft | 425 kts | 265° |
| 2026-04-26 11:16 | 50.55960 | -13.73933 | 36307 ft | 425 kts | 264° |
| 2026-04-26 11:16 | 50.55567 | -13.83146 | 36296 ft | 425 kts | 264° |
| 2026-04-26 11:17 | 50.55176 | -13.92433 | 36357 ft | 427 kts | 265° |
| 2026-04-26 11:17 | 50.54978 | -13.97084 | 36619 ft | 427 kts | 264° |
| 2026-04-26 11:17 | 50.54773 | -14.01738 | 36920 ft | 426 kts | 264° |
| 2026-04-26 11:18 | 50.54563 | -14.06383 | 37225 ft | 426 kts | 264° |
| 2026-04-26 11:18 | 50.54351 | -14.11052 | 37325 ft | 430 kts | 267° |
| 2026-04-26 11:18 | 50.54138 | -14.15755 | 37463 ft | 434 kts | 267° |
| 2026-04-26 11:18 | 50.53920 | -14.20512 | 37596 ft | 438 kts | 267° |
| 2026-04-26 11:19 | 50.53700 | -14.25297 | 37752 ft | 441 kts | 266° |
| 2026-04-26 11:19 | 50.53477 | -14.30124 | 37999 ft | 442 kts | 266° |
| 2026-04-26 11:19 | 50.53251 | -14.34935 | 38252 ft | 442 kts | 266° |
| 2026-04-26 11:19 | 50.53022 | -14.39763 | 38311 ft | 442 kts | 266° |
| 2026-04-26 11:20 | 50.52641 | -14.47758 | 38306 ft | 441 kts | 266° |
| 2026-04-26 11:20 | 50.52710 | -14.58999 | 38308 ft | 440 kts | 272° |
| 2026-04-26 11:21 | 50.52798 | -14.68627 | 38311 ft | 440 kts | 270° |
| 2026-04-26 11:21 | 50.52661 | -14.78237 | 38309 ft | 440 kts | 269° |
| 2026-04-26 11:22 | 50.52325 | -14.87836 | 38304 ft | 440 kts | 266° |
| 2026-04-26 11:22 | 50.51994 | -14.97375 | 38309 ft | 439 kts | 274° |
| 2026-04-26 11:23 | 50.53238 | -15.06693 | 38309 ft | 437 kts | 290° |
| 2026-04-26 11:23 | 50.55290 | -15.15676 | 38306 ft | 436 kts | 290° |
| 2026-04-26 11:24 | 50.57314 | -15.24695 | 38289 ft | 438 kts | 289° |
| 2026-04-26 11:24 | 50.59322 | -15.33759 | 38281 ft | 440 kts | 289° |
| 2026-04-26 11:25 | 50.61349 | -15.42871 | 38285 ft | 441 kts | 290° |
| 2026-04-26 11:25 | 50.63370 | -15.51989 | 38289 ft | 441 kts | 289° |
| 2026-04-26 11:26 | 50.65373 | -15.61141 | 38302 ft | 442 kts | 289° |
| 2026-04-26 11:26 | 50.67373 | -15.70284 | 38299 ft | 442 kts | 289° |
| 2026-04-26 11:27 | 50.69380 | -15.79441 | 38311 ft | 441 kts | 289° |
| 2026-04-26 11:27 | 50.71368 | -15.88596 | 38311 ft | 441 kts | 289° |
| 2026-04-26 11:28 | 50.73341 | -15.97752 | 38316 ft | 441 kts | 289° |
| 2026-04-26 11:28 | 50.75312 | -16.06916 | 38316 ft | 440 kts | 289° |
| 2026-04-26 11:29 | 50.77270 | -16.16025 | 38317 ft | 440 kts | 289° |
| 2026-04-26 11:29 | 50.79219 | -16.25175 | 38317 ft | 440 kts | 289° |
| 2026-04-26 11:30 | 50.80852 | -16.32851 | 38312 ft | 440 kts | 289° |
| 2026-04-26 11:30 | 50.83106 | -16.43517 | 38314 ft | 439 kts | 289° |
| 2026-04-26 11:31 | 50.85040 | -16.52703 | 38310 ft | 439 kts | 289° |
| 2026-04-26 11:31 | 50.86955 | -16.61878 | 38310 ft | 439 kts | 289° |
| 2026-04-26 11:32 | 50.88864 | -16.71059 | 38306 ft | 439 kts | 289° |
| 2026-04-26 11:32 | 50.90765 | -16.80221 | 38309 ft | 438 kts | 289° |
| 2026-04-26 11:33 | 50.92659 | -16.89406 | 38306 ft | 438 kts | 289° |
| 2026-04-26 11:33 | 50.94531 | -16.98519 | 38309 ft | 437 kts | 289° |
| 2026-04-26 11:34 | 50.96406 | -17.07674 | 38312 ft | 436 kts | 288° |
| 2026-04-26 11:34 | 50.98269 | -17.16827 | 38312 ft | 435 kts | 288° |
| 2026-04-26 11:35 | 51.00123 | -17.25963 | 38316 ft | 434 kts | 288° |
| 2026-04-26 11:35 | 51.01658 | -17.33549 | 38305 ft | 434 kts | 288° |
| 2026-04-26 11:36 | 51.03804 | -17.44209 | 38307 ft | 433 kts | 288° |
| 2026-04-26 11:36 | 51.05628 | -17.53334 | 38307 ft | 432 kts | 288° |
| 2026-04-26 11:37 | 51.07441 | -17.62450 | 38309 ft | 432 kts | 288° |
| 2026-04-26 11:37 | 51.09245 | -17.71554 | 38304 ft | 431 kts | 288° |
| 2026-04-26 11:38 | 51.11040 | -17.80664 | 38307 ft | 431 kts | 288° |
| 2026-04-26 11:38 | 51.12812 | -17.89717 | 38301 ft | 431 kts | 288° |
| 2026-04-26 11:39 | 51.14588 | -17.98822 | 38298 ft | 430 kts | 287° |
| 2026-04-26 11:39 | 51.16357 | -18.07923 | 38299 ft | 430 kts | 287° |
| 2026-04-26 11:40 | 51.18118 | -18.17023 | 38297 ft | 430 kts | 287° |
| 2026-04-26 11:40 | 51.19878 | -18.26125 | 38300 ft | 429 kts | 287° |
| 2026-04-26 11:42 | 51.26798 | -18.62581 | 38290 ft | 429 kts | 287° |
| 2026-04-26 11:43 | 51.28506 | -18.71642 | 38295 ft | 429 kts | 287° |
| 2026-04-26 11:43 | 51.30222 | -18.80767 | 38294 ft | 428 kts | 287° |
| 2026-04-26 11:44 | 51.31918 | -18.89899 | 38292 ft | 428 kts | 286° |
| 2026-04-26 11:44 | 51.33601 | -18.99038 | 38293 ft | 428 kts | 286° |
| 2026-04-26 11:45 | 51.35286 | -19.08186 | 38293 ft | 428 kts | 286° |
| 2026-04-26 11:45 | 51.36962 | -19.17324 | 38291 ft | 428 kts | 286° |
| 2026-04-26 11:46 | 51.38629 | -19.26474 | 38291 ft | 428 kts | 286° |
| 2026-04-26 11:46 | 51.40294 | -19.35630 | 38290 ft | 428 kts | 286° |
| 2026-04-26 11:47 | 51.41953 | -19.44791 | 38293 ft | 428 kts | 286° |
| 2026-04-26 11:47 | 51.43599 | -19.53956 | 38291 ft | 428 kts | 286° |
| 2026-04-26 11:48 | 51.45227 | -19.63060 | 38292 ft | 428 kts | 285° |
| 2026-04-26 11:48 | 51.46855 | -19.72231 | 38293 ft | 427 kts | 285° |
| 2026-04-26 11:49 | 51.48479 | -19.81408 | 38294 ft | 427 kts | 285° |
| 2026-04-26 11:49 | 51.50088 | -19.90579 | 38293 ft | 427 kts | 285° |
| 2026-04-26 11:50 | 51.51645 | -19.99783 | 38292 ft | 427 kts | 281° |
| 2026-04-26 11:50 | 51.52546 | -20.09195 | 38290 ft | 427 kts | 278° |
| 2026-04-26 11:51 | 51.53417 | -20.18623 | 38291 ft | 427 kts | 278° |
| 2026-04-26 11:51 | 51.54274 | -20.28052 | 38291 ft | 426 kts | 278° |
| 2026-04-26 11:52 | 51.54981 | -20.35887 | 38292 ft | 426 kts | 278° |
| 2026-04-26 11:52 | 51.55977 | -20.46910 | 38290 ft | 426 kts | 278° |
| 2026-04-26 11:53 | 51.56814 | -20.56333 | 38288 ft | 426 kts | 278° |
| 2026-04-26 11:54 | 51.58043 | -20.70408 | 38288 ft | 426 kts | 278° |
| 2026-04-26 11:54 | 51.58859 | -20.79835 | 38286 ft | 425 kts | 278° |
| 2026-04-26 11:55 | 51.59663 | -20.89248 | 38284 ft | 425 kts | 278° |
| 2026-04-26 11:55 | 51.60332 | -20.97078 | 38284 ft | 425 kts | 278° |
| 2026-04-26 11:56 | 51.61130 | -21.06491 | 38284 ft | 425 kts | 278° |
| 2026-04-26 11:56 | 51.61916 | -21.15903 | 38280 ft | 424 kts | 278° |
| 2026-04-26 11:57 | 51.62697 | -21.25328 | 38276 ft | 424 kts | 278° |
| 2026-04-26 11:57 | 51.63475 | -21.34737 | 38277 ft | 424 kts | 278° |
| 2026-04-26 11:58 | 51.64237 | -21.44144 | 38277 ft | 424 kts | 277° |
| 2026-04-26 11:58 | 51.64997 | -21.53566 | 38271 ft | 424 kts | 277° |
| 2026-04-26 11:59 | 51.65742 | -21.62988 | 38271 ft | 424 kts | 277° |
| 2026-04-26 11:59 | 51.66478 | -21.72414 | 38272 ft | 424 kts | 277° |
| 2026-04-26 12:00 | 51.67211 | -21.81786 | 38271 ft | 424 kts | 277° |
| 2026-04-26 12:00 | 51.67939 | -21.91209 | 38267 ft | 424 kts | 277° |
| 2026-04-26 12:01 | 51.68656 | -22.00641 | 38269 ft | 424 kts | 277° |
| 2026-04-26 12:01 | 51.69364 | -22.10069 | 38275 ft | 423 kts | 277° |
| 2026-04-26 12:02 | 51.70067 | -22.19505 | 38263 ft | 423 kts | 276° |
| 2026-04-26 12:02 | 51.70754 | -22.28926 | 38265 ft | 423 kts | 276° |
| 2026-04-26 12:03 | 51.71443 | -22.38359 | 38265 ft | 423 kts | 276° |
| 2026-04-26 12:03 | 51.72118 | -22.47731 | 38261 ft | 423 kts | 276° |
| 2026-04-26 12:04 | 51.72792 | -22.57157 | 38257 ft | 423 kts | 276° |
| 2026-04-26 12:04 | 51.73456 | -22.66585 | 38258 ft | 422 kts | 276° |
| 2026-04-26 12:05 | 51.74108 | -22.76003 | 38257 ft | 422 kts | 276° |
| 2026-04-26 12:05 | 51.74754 | -22.85415 | 38256 ft | 422 kts | 276° |
| 2026-04-26 12:06 | 51.75404 | -22.94840 | 38259 ft | 422 kts | 276° |
| 2026-04-26 12:06 | 51.76037 | -23.04250 | 38255 ft | 422 kts | 276° |
| 2026-04-26 12:07 | 51.76659 | -23.13665 | 38254 ft | 422 kts | 275° |
| 2026-04-26 12:07 | 51.77279 | -23.23087 | 38248 ft | 421 kts | 275° |
| 2026-04-26 12:08 | 51.77878 | -23.32444 | 38246 ft | 421 kts | 275° |
| 2026-04-26 12:08 | 51.78467 | -23.41842 | 38245 ft | 421 kts | 275° |
| 2026-04-26 12:09 | 51.79063 | -23.51238 | 38243 ft | 421 kts | 275° |
| 2026-04-26 12:09 | 51.79655 | -23.60643 | 38240 ft | 421 kts | 275° |
| 2026-04-26 12:10 | 51.80230 | -23.70060 | 38243 ft | 421 kts | 275° |
| 2026-04-26 12:10 | 51.80796 | -23.79461 | 38236 ft | 420 kts | 275° |
| 2026-04-26 12:11 | 51.81362 | -23.88853 | 38228 ft | 420 kts | 274° |
| 2026-04-26 12:11 | 51.81914 | -23.98250 | 38231 ft | 420 kts | 274° |
| 2026-04-26 12:12 | 51.82461 | -24.07657 | 38225 ft | 420 kts | 274° |
| 2026-04-26 12:12 | 51.83004 | -24.17057 | 38225 ft | 420 kts | 274° |
| 2026-04-26 12:13 | 51.83533 | -24.26401 | 38224 ft | 420 kts | 274° |
| 2026-04-26 12:13 | 51.84052 | -24.35809 | 38221 ft | 420 kts | 274° |
| 2026-04-26 12:14 | 51.84567 | -24.45223 | 38224 ft | 420 kts | 274° |
| 2026-04-26 12:14 | 51.85081 | -24.54647 | 38222 ft | 420 kts | 274° |
| 2026-04-26 12:15 | 51.85590 | -24.64059 | 38216 ft | 420 kts | 273° |
| 2026-04-26 12:15 | 51.86085 | -24.73486 | 38213 ft | 420 kts | 273° |
| 2026-04-26 12:16 | 51.86568 | -24.82919 | 38209 ft | 421 kts | 273° |
| 2026-04-26 12:16 | 51.87042 | -24.92361 | 38204 ft | 421 kts | 273° |
| 2026-04-26 12:17 | 51.87519 | -25.01795 | 38200 ft | 421 kts | 273° |
| 2026-04-26 12:17 | 51.87985 | -25.11238 | 38198 ft | 421 kts | 273° |
| 2026-04-26 12:18 | 51.88440 | -25.20684 | 38193 ft | 421 kts | 272° |
| 2026-04-26 12:18 | 51.88887 | -25.30135 | 38192 ft | 421 kts | 272° |
| 2026-04-26 12:19 | 51.89337 | -25.39598 | 38191 ft | 422 kts | 272° |
| 2026-04-26 12:19 | 51.89773 | -25.49011 | 38186 ft | 422 kts | 272° |
| 2026-04-26 12:20 | 51.90203 | -25.58478 | 38182 ft | 422 kts | 272° |
| 2026-04-26 12:20 | 51.90622 | -25.67978 | 38174 ft | 422 kts | 272° |
| 2026-04-26 12:21 | 51.91036 | -25.77483 | 38174 ft | 422 kts | 272° |
| 2026-04-26 12:21 | 51.91443 | -25.86983 | 38167 ft | 423 kts | 272° |
| 2026-04-26 12:22 | 51.91839 | -25.96483 | 38166 ft | 423 kts | 272° |
| 2026-04-26 12:22 | 51.92224 | -26.05987 | 38162 ft | 423 kts | 272° |
| 2026-04-26 12:23 | 51.92606 | -26.15500 | 38159 ft | 423 kts | 271° |
| 2026-04-26 12:23 | 51.92983 | -26.25014 | 38155 ft | 423 kts | 271° |
| 2026-04-26 12:24 | 51.93355 | -26.34540 | 38151 ft | 423 kts | 271° |
| 2026-04-26 12:24 | 51.93712 | -26.43999 | 38157 ft | 423 kts | 271° |
| 2026-04-26 12:25 | 51.94236 | -26.58289 | 38146 ft | 423 kts | 271° |
| 2026-04-26 12:25 | 51.94577 | -26.67832 | 38145 ft | 423 kts | 271° |
| 2026-04-26 12:26 | 51.94921 | -26.77367 | 38140 ft | 423 kts | 271° |
| 2026-04-26 12:26 | 51.95245 | -26.86898 | 38132 ft | 423 kts | 271° |
| 2026-04-26 12:27 | 51.95562 | -26.96424 | 38126 ft | 423 kts | 271° |
| 2026-04-26 12:27 | 51.95874 | -27.05868 | 38127 ft | 423 kts | 271° |
| 2026-04-26 12:28 | 51.96175 | -27.15390 | 38127 ft | 423 kts | 270° |
| 2026-04-26 12:28 | 51.96462 | -27.24855 | 38116 ft | 423 kts | 270° |
| 2026-04-26 12:29 | 51.96746 | -27.34378 | 38116 ft | 423 kts | 270° |
| 2026-04-26 12:30 | 51.97161 | -27.48660 | 38109 ft | 422 kts | 270° |
| 2026-04-26 12:30 | 51.97429 | -27.58173 | 38106 ft | 422 kts | 270° |
| 2026-04-26 12:31 | 51.97827 | -27.72442 | 38100 ft | 422 kts | 270° |
| 2026-04-26 12:31 | 51.98076 | -27.81960 | 38095 ft | 422 kts | 269° |
| 2026-04-26 12:32 | 51.98319 | -27.91463 | 38089 ft | 422 kts | 269° |
| 2026-04-26 12:33 | 51.98662 | -28.05666 | 38082 ft | 421 kts | 269° |
| 2026-04-26 12:33 | 51.98881 | -28.15167 | 38079 ft | 421 kts | 269° |
| 2026-04-26 12:34 | 51.99091 | -28.24655 | 38074 ft | 421 kts | 269° |
| 2026-04-26 12:34 | 51.99295 | -28.34146 | 38069 ft | 421 kts | 269° |
| 2026-04-26 12:35 | 51.99496 | -28.43634 | 38066 ft | 421 kts | 268° |
| 2026-04-26 12:35 | 51.99690 | -28.53120 | 38058 ft | 421 kts | 268° |
| 2026-04-26 12:36 | 51.99872 | -28.62606 | 38057 ft | 421 kts | 268° |
| 2026-04-26 12:36 | 52.00053 | -28.72096 | 38050 ft | 421 kts | 268° |
| 2026-04-26 12:37 | 52.00218 | -28.81585 | 38044 ft | 421 kts | 268° |
| 2026-04-26 12:37 | 52.00374 | -28.91080 | 38037 ft | 421 kts | 268° |
| 2026-04-26 12:38 | 52.00521 | -29.00579 | 38037 ft | 421 kts | 267° |
| 2026-04-26 12:38 | 52.00676 | -29.10066 | 38030 ft | 421 kts | 267° |
| 2026-04-26 12:39 | 52.00820 | -29.19557 | 38027 ft | 421 kts | 267° |
| 2026-04-26 12:39 | 52.00947 | -29.28994 | 38020 ft | 421 kts | 267° |
| 2026-04-26 12:40 | 52.01059 | -29.38544 | 38014 ft | 421 kts | 266° |
| 2026-04-26 12:40 | 52.01169 | -29.47983 | 38011 ft | 421 kts | 266° |
| 2026-04-26 12:41 | 52.01283 | -29.57478 | 38018 ft | 421 kts | 266° |
| 2026-04-26 12:41 | 52.01385 | -29.66974 | 38016 ft | 420 kts | 266° |
| 2026-04-26 12:42 | 52.01477 | -29.76440 | 37999 ft | 420 kts | 266° |
| 2026-04-26 12:42 | 52.01548 | -29.84385 | 37993 ft | 420 kts | 266° |
| 2026-04-26 12:43 | 52.01619 | -29.93807 | 37995 ft | 420 kts | 265° |
| 2026-04-26 12:43 | 52.01738 | -30.03283 | 37994 ft | 420 kts | 267° |
| 2026-04-26 12:44 | 52.02114 | -30.12771 | 37991 ft | 422 kts | 269° |
| 2026-04-26 12:44 | 52.02583 | -30.22258 | 37989 ft | 421 kts | 269° |
| 2026-04-26 12:45 | 52.03006 | -30.31738 | 37980 ft | 421 kts | 268° |
| 2026-04-26 12:45 | 52.03373 | -30.41216 | 37975 ft | 420 kts | 267° |
| 2026-04-26 12:46 | 52.03729 | -30.50710 | 37968 ft | 420 kts | 267° |
| 2026-04-26 12:46 | 52.04079 | -30.60186 | 37964 ft | 420 kts | 267° |
| 2026-04-26 12:47 | 52.04426 | -30.69656 | 37961 ft | 420 kts | 267° |
| 2026-04-26 12:47 | 52.04772 | -30.79139 | 37951 ft | 420 kts | 267° |
| 2026-04-26 12:48 | 52.05108 | -30.88636 | 37954 ft | 421 kts | 266° |
| 2026-04-26 12:48 | 52.05431 | -30.98053 | 37938 ft | 420 kts | 266° |
| 2026-04-26 12:49 | 52.05744 | -31.07529 | 37935 ft | 420 kts | 266° |
| 2026-04-26 12:49 | 52.06055 | -31.17023 | 37933 ft | 420 kts | 266° |
| 2026-04-26 12:50 | 52.06361 | -31.26510 | 37932 ft | 421 kts | 266° |
| 2026-04-26 12:50 | 52.06661 | -31.36013 | 37927 ft | 421 kts | 265° |
| 2026-04-26 12:51 | 52.06948 | -31.45502 | 37911 ft | 420 kts | 265° |
| 2026-04-26 12:51 | 52.07229 | -31.54989 | 37910 ft | 420 kts | 265° |
| 2026-04-26 12:52 | 52.07506 | -31.64482 | 37910 ft | 421 kts | 265° |
| 2026-04-26 12:52 | 52.07772 | -31.73935 | 37907 ft | 421 kts | 265° |
| 2026-04-26 12:53 | 52.08027 | -31.83430 | 37904 ft | 421 kts | 265° |
| 2026-04-26 12:53 | 52.08280 | -31.92941 | 37904 ft | 421 kts | 265° |
| 2026-04-26 12:54 | 52.08521 | -32.02443 | 37901 ft | 421 kts | 264° |
| 2026-04-26 12:54 | 52.08761 | -32.11958 | 37902 ft | 421 kts | 264° |
| 2026-04-26 12:55 | 52.08987 | -32.21461 | 37904 ft | 421 kts | 264° |
| 2026-04-26 12:55 | 52.09208 | -32.30981 | 37907 ft | 421 kts | 264° |
| 2026-04-26 12:56 | 52.09419 | -32.40496 | 37890 ft | 421 kts | 264° |
| 2026-04-26 12:56 | 52.09629 | -32.49958 | 37898 ft | 421 kts | 264° |
| 2026-04-26 12:57 | 52.09826 | -32.59473 | 37898 ft | 421 kts | 264° |
| 2026-04-26 12:57 | 52.10014 | -32.68999 | 37899 ft | 421 kts | 263° |
| 2026-04-26 12:58 | 52.10285 | -32.83285 | 37896 ft | 421 kts | 263° |
| 2026-04-26 12:58 | 52.10453 | -32.92820 | 37890 ft | 422 kts | 263° |
| 2026-04-26 12:59 | 52.10618 | -33.02356 | 37892 ft | 422 kts | 263° |
| 2026-04-26 12:59 | 52.10776 | -33.11889 | 37881 ft | 422 kts | 263° |
| 2026-04-26 13:00 | 52.10921 | -33.21357 | 37881 ft | 422 kts | 263° |
| 2026-04-26 13:00 | 52.11065 | -33.30899 | 37874 ft | 422 kts | 262° |
| 2026-04-26 13:01 | 52.11198 | -33.40443 | 37879 ft | 422 kts | 262° |
| 2026-04-26 13:01 | 52.11328 | -33.49994 | 37877 ft | 422 kts | 262° |
| 2026-04-26 13:02 | 52.11439 | -33.59556 | 37869 ft | 422 kts | 262° |
| 2026-04-26 13:02 | 52.11543 | -33.69112 | 37860 ft | 422 kts | 262° |
| 2026-04-26 13:03 | 52.11646 | -33.78671 | 37857 ft | 423 kts | 262° |
| 2026-04-26 13:03 | 52.11743 | -33.88246 | 37852 ft | 423 kts | 262° |
| 2026-04-26 13:04 | 52.11828 | -33.97773 | 37849 ft | 424 kts | 262° |
| 2026-04-26 13:04 | 52.11903 | -34.07365 | 37849 ft | 424 kts | 262° |
| 2026-04-26 13:05 | 52.11974 | -34.16954 | 37840 ft | 424 kts | 262° |
| 2026-04-26 13:05 | 52.12036 | -34.26574 | 37841 ft | 425 kts | 262° |
| 2026-04-26 13:06 | 52.12097 | -34.36193 | 37845 ft | 425 kts | 262° |
| 2026-04-26 13:06 | 52.12139 | -34.45832 | 37838 ft | 426 kts | 262° |
| 2026-04-26 13:07 | 52.12184 | -34.55421 | 37835 ft | 427 kts | 262° |
| 2026-04-26 13:07 | 52.12221 | -34.65085 | 37831 ft | 427 kts | 261° |
| 2026-04-26 13:08 | 52.12242 | -34.74743 | 37824 ft | 427 kts | 261° |
| 2026-04-26 13:08 | 52.12260 | -34.84419 | 37816 ft | 428 kts | 261° |
| 2026-04-26 13:09 | 52.12272 | -34.94098 | 37813 ft | 428 kts | 261° |
| 2026-04-26 13:09 | 52.12268 | -35.03774 | 37812 ft | 428 kts | 261° |
| 2026-04-26 13:10 | 52.12264 | -35.13467 | 37805 ft | 428 kts | 261° |
| 2026-04-26 13:10 | 52.12250 | -35.23170 | 37800 ft | 429 kts | 261° |
| 2026-04-26 13:11 | 52.12231 | -35.32896 | 37797 ft | 430 kts | 261° |
| 2026-04-26 13:11 | 52.12198 | -35.42562 | 37791 ft | 430 kts | 261° |
| 2026-04-26 13:12 | 52.12160 | -35.52299 | 37787 ft | 430 kts | 261° |
| 2026-04-26 13:12 | 52.12115 | -35.62036 | 37782 ft | 431 kts | 261° |
| 2026-04-26 13:13 | 52.12060 | -35.71785 | 37775 ft | 431 kts | 261° |
| 2026-04-26 13:13 | 52.11993 | -35.81543 | 37771 ft | 431 kts | 261° |
| 2026-04-26 13:14 | 52.11913 | -35.91308 | 37764 ft | 432 kts | 261° |
| 2026-04-26 13:14 | 52.11837 | -36.01076 | 37765 ft | 433 kts | 261° |
| 2026-04-26 13:15 | 52.11758 | -36.10874 | 37758 ft | 433 kts | 261° |
| 2026-04-26 13:15 | 52.11674 | -36.19018 | 37754 ft | 433 kts | 261° |
| 2026-04-26 13:16 | 52.11547 | -36.30475 | 37753 ft | 433 kts | 261° |
| 2026-04-26 13:16 | 52.11431 | -36.40288 | 37755 ft | 434 kts | 261° |
| 2026-04-26 13:17 | 52.11254 | -36.54959 | 37754 ft | 434 kts | 261° |
| 2026-04-26 13:18 | 52.11053 | -36.69702 | 37751 ft | 435 kts | 261° |
| 2026-04-26 13:19 | 52.10841 | -36.84452 | 37736 ft | 435 kts | 261° |
| 2026-04-26 13:19 | 52.10679 | -36.94290 | 37733 ft | 435 kts | 261° |
| 2026-04-26 13:20 | 52.10510 | -37.04120 | 37721 ft | 435 kts | 261° |
| 2026-04-26 13:20 | 52.10337 | -37.13970 | 37712 ft | 436 kts | 261° |
| 2026-04-26 13:21 | 52.10156 | -37.23820 | 37704 ft | 436 kts | 261° |
| 2026-04-26 13:21 | 52.09965 | -37.33690 | 37702 ft | 437 kts | 261° |
| 2026-04-26 13:22 | 52.09764 | -37.43581 | 37696 ft | 438 kts | 261° |
| 2026-04-26 13:22 | 52.09555 | -37.53478 | 37693 ft | 438 kts | 261° |
| 2026-04-26 13:23 | 52.09337 | -37.63392 | 37685 ft | 439 kts | 261° |
| 2026-04-26 13:23 | 52.09109 | -37.73330 | 37677 ft | 440 kts | 261° |
| 2026-04-26 13:24 | 52.08877 | -37.83276 | 37678 ft | 440 kts | 261° |
| 2026-04-26 13:24 | 52.08636 | -37.93230 | 37670 ft | 441 kts | 261° |
| 2026-04-26 13:25 | 52.08383 | -38.03152 | 37668 ft | 442 kts | 261° |
| 2026-04-26 13:25 | 52.08120 | -38.13140 | 37662 ft | 442 kts | 261° |
| 2026-04-26 13:26 | 52.07854 | -38.23133 | 37657 ft | 443 kts | 262° |
| 2026-04-26 13:26 | 52.07576 | -38.33136 | 37654 ft | 443 kts | 261° |
| 2026-04-26 13:27 | 52.07287 | -38.43163 | 37646 ft | 444 kts | 261° |
| 2026-04-26 13:27 | 52.06994 | -38.53191 | 37641 ft | 444 kts | 262° |
| 2026-04-26 13:28 | 52.06690 | -38.63222 | 37637 ft | 445 kts | 261° |
| 2026-04-26 13:28 | 52.06373 | -38.73275 | 37634 ft | 445 kts | 262° |
| 2026-04-26 13:29 | 52.06051 | -38.83260 | 37634 ft | 446 kts | 261° |
| 2026-04-26 13:29 | 52.05720 | -38.93326 | 37628 ft | 446 kts | 262° |
| 2026-04-26 13:30 | 52.05387 | -39.03410 | 37622 ft | 447 kts | 262° |
| 2026-04-26 13:30 | 52.05042 | -39.13485 | 37623 ft | 447 kts | 261° |
| 2026-04-26 13:31 | 52.04682 | -39.23571 | 37621 ft | 447 kts | 261° |
| 2026-04-26 13:31 | 52.04309 | -39.33649 | 37623 ft | 447 kts | 261° |
| 2026-04-26 13:32 | 52.03939 | -39.43730 | 37617 ft | 447 kts | 261° |
| 2026-04-26 13:32 | 52.03618 | -39.52112 | 37616 ft | 447 kts | 261° |
| 2026-04-26 13:33 | 52.03222 | -39.62194 | 37613 ft | 447 kts | 261° |
| 2026-04-26 13:33 | 52.02819 | -39.72276 | 37605 ft | 448 kts | 261° |
| 2026-04-26 13:34 | 52.02413 | -39.82374 | 37602 ft | 448 kts | 261° |
| 2026-04-26 13:34 | 52.02000 | -39.92474 | 37590 ft | 448 kts | 261° |
| 2026-04-26 13:35 | 52.01331 | -40.02494 | 37584 ft | 443 kts | 252° |
| 2026-04-26 13:35 | 51.99861 | -40.12193 | 37575 ft | 443 kts | 251° |
| 2026-04-26 13:36 | 51.98391 | -40.21914 | 37574 ft | 444 kts | 251° |
| 2026-04-26 13:36 | 51.96909 | -40.31658 | 37570 ft | 445 kts | 252° |
| 2026-04-26 13:37 | 51.95422 | -40.41399 | 37567 ft | 445 kts | 252° |
| 2026-04-26 13:37 | 51.93920 | -40.51145 | 37565 ft | 446 kts | 251° |
| 2026-04-26 13:38 | 51.92401 | -40.60898 | 37556 ft | 446 kts | 251° |
| 2026-04-26 13:38 | 51.90872 | -40.70652 | 37551 ft | 447 kts | 251° |
| 2026-04-26 13:39 | 51.89339 | -40.80406 | 37548 ft | 447 kts | 252° |
| 2026-04-26 13:39 | 51.87796 | -40.90163 | 37545 ft | 448 kts | 251° |
| 2026-04-26 13:40 | 51.86256 | -40.99862 | 37549 ft | 448 kts | 251° |
| 2026-04-26 13:40 | 51.84699 | -41.09628 | 37539 ft | 449 kts | 251° |
| 2026-04-26 13:41 | 51.83121 | -41.19407 | 37546 ft | 449 kts | 251° |
| 2026-04-26 13:41 | 51.81534 | -41.29185 | 37553 ft | 450 kts | 251° |
| 2026-04-26 13:42 | 51.79941 | -41.38971 | 37550 ft | 451 kts | 251° |
| 2026-04-26 13:42 | 51.78339 | -41.48763 | 37551 ft | 451 kts | 251° |
| 2026-04-26 13:43 | 51.76730 | -41.58555 | 37543 ft | 452 kts | 251° |
| 2026-04-26 13:43 | 51.75113 | -41.68354 | 37546 ft | 452 kts | 251° |
| 2026-04-26 13:44 | 51.73480 | -41.78140 | 37535 ft | 452 kts | 251° |
| 2026-04-26 13:44 | 51.71832 | -41.87918 | 37532 ft | 452 kts | 251° |
| 2026-04-26 13:45 | 51.70181 | -41.97696 | 37526 ft | 452 kts | 251° |
| 2026-04-26 13:45 | 51.68531 | -42.07486 | 37519 ft | 453 kts | 251° |
| 2026-04-26 13:46 | 51.66868 | -42.17288 | 37515 ft | 453 kts | 251° |
| 2026-04-26 13:46 | 51.65181 | -42.27084 | 37513 ft | 454 kts | 251° |
| 2026-04-26 13:47 | 51.63493 | -42.36886 | 37515 ft | 455 kts | 251° |
| 2026-04-26 13:47 | 51.61796 | -42.46701 | 37511 ft | 455 kts | 251° |
| 2026-04-26 13:48 | 51.60085 | -42.56511 | 37502 ft | 456 kts | 251° |
| 2026-04-26 13:48 | 51.58363 | -42.66320 | 37503 ft | 456 kts | 251° |
| 2026-04-26 13:49 | 51.56645 | -42.76090 | 37502 ft | 457 kts | 251° |
| 2026-04-26 13:49 | 51.54903 | -42.85917 | 37501 ft | 458 kts | 251° |
| 2026-04-26 13:50 | 51.53150 | -42.95749 | 37502 ft | 458 kts | 251° |
| 2026-04-26 13:50 | 51.51392 | -43.05600 | 37496 ft | 459 kts | 251° |
| 2026-04-26 13:51 | 51.49620 | -43.15452 | 37494 ft | 459 kts | 251° |
| 2026-04-26 13:51 | 51.47835 | -43.25298 | 37488 ft | 460 kts | 251° |
| 2026-04-26 13:52 | 51.46042 | -43.35147 | 37485 ft | 461 kts | 251° |
| 2026-04-26 13:52 | 51.44232 | -43.45011 | 37485 ft | 461 kts | 251° |
| 2026-04-26 13:53 | 51.42408 | -43.54875 | 37481 ft | 462 kts | 251° |
| 2026-04-26 13:53 | 51.40580 | -43.64759 | 37474 ft | 462 kts | 251° |
| 2026-04-26 13:54 | 51.38754 | -43.74620 | 37475 ft | 463 kts | 251° |
| 2026-04-26 13:54 | 51.36911 | -43.84508 | 37470 ft | 463 kts | 251° |
| 2026-04-26 13:55 | 51.34433 | -43.97660 | 37467 ft | 464 kts | 251° |
| 2026-04-26 13:56 | 51.31309 | -44.14145 | 37467 ft | 465 kts | 251° |
| 2026-04-26 13:56 | 51.29432 | -44.23973 | 37466 ft | 465 kts | 251° |
| 2026-04-26 13:57 | 51.27526 | -44.33929 | 37469 ft | 466 kts | 251° |
| 2026-04-26 13:57 | 51.25629 | -44.43754 | 37468 ft | 466 kts | 251° |
| 2026-04-26 13:58 | 51.23702 | -44.53644 | 37465 ft | 467 kts | 251° |
| 2026-04-26 13:58 | 51.21752 | -44.63603 | 37469 ft | 467 kts | 251° |
| 2026-04-26 13:59 | 51.19813 | -44.73502 | 37467 ft | 468 kts | 251° |
| 2026-04-26 13:59 | 51.17882 | -44.83361 | 37465 ft | 469 kts | 251° |
| 2026-04-26 14:00 | 51.13947 | -45.03177 | 37461 ft | 470 kts | 251° |
| 2026-04-26 14:01 | 51.11958 | -45.13094 | 37464 ft | 470 kts | 251° |
| 2026-04-26 14:01 | 51.09968 | -45.23011 | 37471 ft | 471 kts | 251° |
| 2026-04-26 14:02 | 51.07985 | -45.32860 | 37473 ft | 471 kts | 251° |
| 2026-04-26 14:02 | 51.05971 | -45.42770 | 37472 ft | 471 kts | 251° |
| 2026-04-26 14:03 | 51.03943 | -45.52698 | 37471 ft | 472 kts | 251° |
| 2026-04-26 14:03 | 51.01903 | -45.62621 | 37471 ft | 472 kts | 251° |
| 2026-04-26 14:04 | 50.99865 | -45.72536 | 37475 ft | 473 kts | 251° |
| 2026-04-26 14:04 | 50.97819 | -45.82449 | 37475 ft | 473 kts | 251° |
| 2026-04-26 14:05 | 50.95758 | -45.92356 | 37475 ft | 473 kts | 251° |
| 2026-04-26 14:05 | 50.93681 | -46.02264 | 37476 ft | 474 kts | 251° |
| 2026-04-26 14:06 | 50.91587 | -46.12173 | 37476 ft | 474 kts | 250° |
| 2026-04-26 14:06 | 50.89490 | -46.22072 | 37471 ft | 474 kts | 250° |
| 2026-04-26 14:07 | 50.87392 | -46.31992 | 37472 ft | 475 kts | 251° |
| 2026-04-26 14:07 | 50.85284 | -46.41899 | 37471 ft | 475 kts | 250° |
| 2026-04-26 14:08 | 50.83172 | -46.51740 | 37472 ft | 476 kts | 250° |
| 2026-04-26 14:08 | 50.81034 | -46.61664 | 37474 ft | 476 kts | 250° |
| 2026-04-26 14:09 | 50.78886 | -46.71585 | 37477 ft | 477 kts | 250° |
| 2026-04-26 14:09 | 50.76730 | -46.81500 | 37479 ft | 477 kts | 250° |
| 2026-04-26 14:10 | 50.74565 | -46.91402 | 37480 ft | 478 kts | 250° |
| 2026-04-26 14:10 | 50.72383 | -47.01316 | 37478 ft | 478 kts | 250° |
| 2026-04-26 14:11 | 50.69096 | -47.16175 | 37478 ft | 479 kts | 250° |
| 2026-04-26 14:11 | 50.66898 | -47.26086 | 37474 ft | 479 kts | 250° |
| 2026-04-26 14:12 | 50.64687 | -47.35990 | 37481 ft | 479 kts | 250° |
| 2026-04-26 14:12 | 50.62466 | -47.45895 | 37486 ft | 480 kts | 250° |
| 2026-04-26 14:13 | 50.59125 | -47.60692 | 37489 ft | 480 kts | 250° |
| 2026-04-26 14:14 | 50.56873 | -47.70607 | 37497 ft | 480 kts | 250° |
| 2026-04-26 14:14 | 50.54612 | -47.80505 | 37504 ft | 481 kts | 250° |
| 2026-04-26 14:15 | 50.52345 | -47.90402 | 37500 ft | 481 kts | 250° |
| 2026-04-26 14:15 | 50.50072 | -48.00294 | 37505 ft | 481 kts | 250° |
| 2026-04-26 14:16 | 50.47789 | -48.10158 | 37500 ft | 482 kts | 250° |
| 2026-04-26 14:16 | 50.45480 | -48.20065 | 37511 ft | 482 kts | 250° |
| 2026-04-26 14:17 | 50.43191 | -48.29876 | 37519 ft | 482 kts | 250° |
| 2026-04-26 14:17 | 50.40872 | -48.39770 | 37520 ft | 483 kts | 250° |
| 2026-04-26 14:18 | 50.38548 | -48.49633 | 37514 ft | 483 kts | 250° |
| 2026-04-26 14:18 | 50.36205 | -48.59524 | 37518 ft | 483 kts | 250° |
| 2026-04-26 14:19 | 50.34255 | -48.67726 | 37516 ft | 484 kts | 250° |
| 2026-04-26 14:19 | 50.31905 | -48.77598 | 37526 ft | 484 kts | 250° |
| 2026-04-26 14:20 | 50.29544 | -48.87460 | 37528 ft | 484 kts | 250° |
| 2026-04-26 14:20 | 50.27165 | -48.97321 | 37531 ft | 484 kts | 250° |
| 2026-04-26 14:21 | 50.24779 | -49.07166 | 37533 ft | 484 kts | 250° |
| 2026-04-26 14:21 | 50.22398 | -49.16994 | 37537 ft | 484 kts | 250° |
| 2026-04-26 14:22 | 50.20006 | -49.26805 | 37541 ft | 483 kts | 250° |
| 2026-04-26 14:22 | 50.17618 | -49.36549 | 37541 ft | 483 kts | 250° |
| 2026-04-26 14:23 | 50.15207 | -49.46339 | 37543 ft | 483 kts | 250° |
| 2026-04-26 14:23 | 50.12789 | -49.56103 | 37554 ft | 483 kts | 250° |
| 2026-04-26 14:24 | 50.10357 | -49.65885 | 37559 ft | 483 kts | 250° |
| 2026-04-26 14:24 | 50.07920 | -49.75649 | 37562 ft | 484 kts | 249° |
| 2026-04-26 14:25 | 50.05472 | -49.85410 | 37567 ft | 484 kts | 249° |
| 2026-04-26 14:25 | 50.03037 | -49.95092 | 37569 ft | 484 kts | 249° |
| 2026-04-26 14:26 | 50.00586 | -50.04827 | 37574 ft | 484 kts | 250° |
| 2026-04-26 14:26 | 49.98219 | -50.14621 | 37579 ft | 483 kts | 251° |
| 2026-04-26 14:27 | 49.95893 | -50.24417 | 37574 ft | 483 kts | 251° |
| 2026-04-26 14:27 | 49.93532 | -50.34213 | 37579 ft | 484 kts | 250° |
| 2026-04-26 14:28 | 49.91144 | -50.43969 | 37586 ft | 484 kts | 250° |
| 2026-04-26 14:28 | 49.88742 | -50.53735 | 37567 ft | 485 kts | 250° |
| 2026-04-26 14:28 | 49.87539 | -50.58611 | 37311 ft | 484 kts | 250° |
| 2026-04-26 14:29 | 49.86333 | -50.63498 | 37058 ft | 485 kts | 250° |
| 2026-04-26 14:29 | 49.85129 | -50.68384 | 36806 ft | 486 kts | 250° |
| 2026-04-26 14:29 | 49.83919 | -50.73284 | 36554 ft | 486 kts | 250° |
| 2026-04-26 14:29 | 49.82711 | -50.78172 | 36307 ft | 487 kts | 250° |
| 2026-04-26 14:30 | 49.81496 | -50.83073 | 36065 ft | 488 kts | 250° |
| 2026-04-26 14:30 | 49.80270 | -50.87993 | 35821 ft | 490 kts | 250° |
| 2026-04-26 14:30 | 49.79041 | -50.92902 | 35603 ft | 491 kts | 250° |
| 2026-04-26 14:31 | 49.76577 | -51.02693 | 35608 ft | 492 kts | 250° |
| 2026-04-26 14:31 | 49.74093 | -51.12555 | 35616 ft | 492 kts | 250° |
| 2026-04-26 14:32 | 49.71597 | -51.22417 | 35617 ft | 492 kts | 250° |
| 2026-04-26 14:32 | 49.69101 | -51.32270 | 35627 ft | 493 kts | 250° |
| 2026-04-26 14:33 | 49.66596 | -51.42123 | 35630 ft | 493 kts | 250° |
| 2026-04-26 14:33 | 49.64074 | -51.51957 | 35638 ft | 493 kts | 250° |
| 2026-04-26 14:34 | 49.61542 | -51.61787 | 35639 ft | 493 kts | 250° |
| 2026-04-26 14:34 | 49.58996 | -51.71607 | 35635 ft | 493 kts | 250° |
| 2026-04-26 14:35 | 49.56447 | -51.81432 | 35651 ft | 494 kts | 250° |
| 2026-04-26 14:35 | 49.53766 | -51.91157 | 35651 ft | 495 kts | 243° |
| 2026-04-26 14:36 | 49.50064 | -52.00135 | 35653 ft | 496 kts | 242° |
| 2026-04-26 14:36 | 49.47257 | -52.09779 | 35661 ft | 493 kts | 253° |
| 2026-04-26 14:37 | 49.45297 | -52.19858 | 35666 ft | 492 kts | 257° |
| 2026-04-26 14:37 | 49.43363 | -52.29938 | 35668 ft | 493 kts | 255° |
| 2026-04-26 14:38 | 49.41149 | -52.39844 | 35671 ft | 494 kts | 252° |
| 2026-04-26 14:38 | 49.38800 | -52.49754 | 35675 ft | 494 kts | 252° |
| 2026-04-26 14:39 | 49.36467 | -52.59683 | 35675 ft | 494 kts | 253° |
| 2026-04-26 14:39 | 49.35322 | -52.64653 | 35334 ft | 495 kts | 253° |
| 2026-04-26 14:39 | 49.34188 | -52.69621 | 35072 ft | 492 kts | 253° |
| 2026-04-26 14:39 | 49.33056 | -52.74587 | 34839 ft | 493 kts | 253° |
| 2026-04-26 14:40 | 49.31923 | -52.79547 | 34609 ft | 494 kts | 253° |
| 2026-04-26 14:40 | 49.30782 | -52.84506 | 33934 ft | 496 kts | 253° |
| 2026-04-26 14:40 | 49.29613 | -52.89561 | 32755 ft | 507 kts | 254° |
| 2026-04-26 14:40 | 49.28424 | -52.94672 | 31630 ft | 512 kts | 254° |
| 2026-04-26 14:41 | 49.27215 | -52.99859 | 30372 ft | 522 kts | 255° |
| 2026-04-26 14:41 | 49.25984 | -53.05128 | 28935 ft | 530 kts | 255° |
| 2026-04-26 14:41 | 49.24733 | -53.10465 | 27412 ft | 537 kts | 255° |
| 2026-04-26 14:41 | 49.23467 | -53.15850 | 26035 ft | 540 kts | 255° |
| 2026-04-26 14:42 | 49.22195 | -53.21223 | 25158 ft | 532 kts | 254° |
| 2026-04-26 14:42 | 49.20928 | -53.26550 | 23975 ft | 531 kts | 254° |
| 2026-04-26 14:42 | 49.19679 | -53.31804 | 23060 ft | 523 kts | 254° |
| 2026-04-26 14:42 | 49.18457 | -53.36930 | 22039 ft | 514 kts | 254° |
| 2026-04-26 14:43 | 49.17241 | -53.42017 | 21088 ft | 504 kts | 254° |
| 2026-04-26 14:43 | 49.16045 | -53.47007 | 20183 ft | 495 kts | 254° |
| 2026-04-26 14:43 | 49.14876 | -53.51892 | 19305 ft | 486 kts | 254° |
| 2026-04-26 14:43 | 49.13724 | -53.56706 | 18442 ft | 477 kts | 254° |
| 2026-04-26 14:44 | 49.12590 | -53.61422 | 17523 ft | 468 kts | 254° |
| 2026-04-26 14:44 | 49.11478 | -53.66033 | 16545 ft | 460 kts | 254° |
| 2026-04-26 14:44 | 49.10382 | -53.70572 | 15613 ft | 452 kts | 254° |
| 2026-04-26 14:44 | 49.09302 | -53.75043 | 14725 ft | 445 kts | 255° |
| 2026-04-26 14:45 | 49.08241 | -53.79421 | 14270 ft | 431 kts | 255° |
| 2026-04-26 14:45 | 49.07564 | -53.82194 | 14188 ft | 415 kts | 255° |
| 2026-04-26 14:45 | 49.06258 | -53.87512 | 14019 ft | 386 kts | 255° |
| 2026-04-26 14:45 | 49.05340 | -53.91259 | 13893 ft | 368 kts | 256° |
| 2026-04-26 14:46 | 49.04466 | -53.94829 | 13771 ft | 352 kts | 256° |
| 2026-04-26 14:46 | 49.03627 | -53.98263 | 13630 ft | 340 kts | 256° |
| 2026-04-26 14:46 | 49.02812 | -54.01616 | 13309 ft | 335 kts | 256° |
| 2026-04-26 14:46 | 49.02009 | -54.04923 | 12995 ft | 332 kts | 257° |
| 2026-04-26 14:47 | 49.01204 | -54.08234 | 12608 ft | 334 kts | 257° |
| 2026-04-26 14:47 | 49.00397 | -54.11548 | 12135 ft | 334 kts | 256° |
| 2026-04-26 14:47 | 48.99585 | -54.14864 | 11663 ft | 334 kts | 256° |
| 2026-04-26 14:47 | 48.98774 | -54.18173 | 11198 ft | 333 kts | 256° |
| 2026-04-26 14:48 | 48.97960 | -54.21471 | 10739 ft | 332 kts | 256° |
| 2026-04-26 14:48 | 48.97144 | -54.24763 | 10287 ft | 332 kts | 256° |
| 2026-04-26 14:48 | 48.96333 | -54.28029 | 9839 ft | 330 kts | 256° |
| 2026-04-26 14:48 | 48.95529 | -54.31253 | 9373 ft | 328 kts | 256° |
| 2026-04-26 14:49 | 48.94709 | -54.34528 | 8878 ft | 327 kts | 255° |
| 2026-04-26 14:49 | 48.93547 | -54.37473 | 8397 ft | 335 kts | 232° |
| 2026-04-26 14:49 | 48.91674 | -54.39566 | 8061 ft | 332 kts | 207° |
| 2026-04-26 14:49 | 48.89606 | -54.40928 | 7799 ft | 320 kts | 203° |
| 2026-04-26 14:50 | 48.87564 | -54.42197 | 7361 ft | 315 kts | 203° |
| 2026-04-26 14:50 | 48.85550 | -54.43436 | 6932 ft | 311 kts | 203° |
| 2026-04-26 14:50 | 48.83569 | -54.44641 | 6716 ft | 298 kts | 203° |
| 2026-04-26 14:50 | 48.81682 | -54.45780 | 6589 ft | 286 kts | 203° |
| 2026-04-26 14:51 | 48.79874 | -54.46869 | 6453 ft | 274 kts | 203° |
| 2026-04-26 14:51 | 48.78104 | -54.47936 | 6099 ft | 273 kts | 204° |
| 2026-04-26 14:51 | 48.76527 | -54.49433 | 5708 ft | 263 kts | 232° |
| 2026-04-26 14:51 | 48.75431 | -54.51589 | 5308 ft | 256 kts | 242° |
| 2026-04-26 14:52 | 48.74439 | -54.53830 | 4798 ft | 255 kts | 243° |
| 2026-04-26 14:52 | 48.73671 | -54.56179 | 4343 ft | 241 kts | 266° |
| 2026-04-26 14:52 | 48.73760 | -54.58553 | 3950 ft | 217 kts | 300° |
| 2026-04-26 14:52 | 48.74598 | -54.60279 | 3837 ft | 195 kts | 329° |
| 2026-04-26 14:53 | 48.75719 | -54.61104 | 3763 ft | 172 kts | 351° |
| 2026-04-26 14:53 | 48.76864 | -54.61148 | 3606 ft | 161 kts | 9° |
| 2026-04-26 14:53 | 48.77931 | -54.60840 | 3441 ft | 149 kts | 9° |
| 2026-04-26 14:53 | 48.78912 | -54.60558 | 3233 ft | 139 kts | 9° |
| 2026-04-26 14:54 | 48.79836 | -54.60294 | 3049 ft | 132 kts | 9° |
| 2026-04-26 14:54 | 48.80717 | -54.60041 | 2861 ft | 126 kts | 8° |
| 2026-04-26 14:54 | 48.81551 | -54.59802 | 2688 ft | 119 kts | 8° |
| 2026-04-26 14:54 | 48.82342 | -54.59575 | 2525 ft | 113 kts | 7° |
| 2026-04-26 14:55 | 48.83097 | -54.59359 | 2369 ft | 109 kts | 7° |
| 2026-04-26 14:55 | 48.83827 | -54.59150 | 2226 ft | 106 kts | 6° |
| 2026-04-26 14:55 | 48.84555 | -54.58941 | 2073 ft | 106 kts | 6° |
| 2026-04-26 14:55 | 48.85284 | -54.58733 | 1917 ft | 108 kts | 6° |
| 2026-04-26 14:56 | 48.86010 | -54.58524 | 1776 ft | 106 kts | 5° |
| 2026-04-26 14:56 | 48.86731 | -54.58317 | 1612 ft | 106 kts | 5° |
| 2026-04-26 14:56 | 48.87450 | -54.58111 | 1465 ft | 105 kts | 5° |
| 2026-04-26 14:56 | 48.88177 | -54.57902 | 1301 ft | 106 kts | 6° |
| 2026-04-26 14:57 | 48.88898 | -54.57695 | 1128 ft | 104 kts | 6° |
| 2026-04-26 14:57 | 48.89616 | -54.57488 | 977 ft | 107 kts | 6° |
| 2026-04-26 14:57 | 48.90354 | -54.57268 | 812 ft | 110 kts | 7° |
| 2026-04-26 14:57 | 48.91094 | -54.57064 | 700 ft | 107 kts | 7° |
| 2026-04-26 14:58 | 48.91860 | -54.56843 | 566 ft | 116 kts | 8° |
| 2026-04-26 14:58 | 48.92603 | -54.56620 | 433 ft | 97 kts | 7° |
| 2026-04-26 14:58 | 48.93130 | -54.56477 | 448 ft | 53 kts | 10° |
| 2026-04-26 14:58 | 48.93370 | -54.56408 | 451 ft | 30 kts | 11° |
| 2026-04-26 14:59 | 48.93583 | -54.56349 | 449 ft | 31 kts | 9° |
| 2026-04-26 14:59 | 48.93791 | -54.56291 | 452 ft | 29 kts | 10° |
| 2026-04-26 14:59 | 48.93974 | -54.56237 | 455 ft | 25 kts | 11° |
| 2026-04-26 14:59 | 48.94073 | -54.56206 | 461 ft | 20 kts | 12° |
| 2026-04-26 15:00 | 48.94232 | -54.56158 | 463 ft | 17 kts | 11° |
| 2026-04-26 15:00 | 48.94348 | -54.56125 | 464 ft | 16 kts | 11° |
| 2026-04-26 15:00 | 48.94462 | -54.56094 | 463 ft | 18 kts | 10° |
| 2026-04-26 15:00 | 48.94595 | -54.56056 | 461 ft | 20 kts | 11° |
| 2026-04-26 15:01 | 48.94739 | -54.56018 | 457 ft | 21 kts | 0° |
| 2026-04-26 15:01 | 48.94808 | -54.56171 | 458 ft | 19 kts | 289° |
| 2026-04-26 15:01 | 48.94850 | -54.56357 | 457 ft | 18 kts | 289° |
| 2026-04-26 15:01 | 48.94887 | -54.56516 | 461 ft | 14 kts | 290° |
| 2026-04-26 15:02 | 48.94912 | -54.56638 | 460 ft | 11 kts | 287° |
| 2026-04-26 15:02 | 48.94933 | -54.56740 | 463 ft | 10 kts | 287° |
| 2026-04-26 15:02 | 48.94951 | -54.56833 | 464 ft | 9 kts | 284° |
| 2026-04-26 15:02 | 48.94922 | -54.56901 | 467 ft | 10 kts | 201° |
| 2026-04-26 15:03 | 48.94835 | -54.56945 | 466 ft | 14 kts | 198° |
| 2026-04-26 15:03 | 48.94752 | -54.56986 | 466 ft | 10 kts | 199° |
| 2026-04-26 15:03 | 48.94716 | -54.57057 | 467 ft | 7 kts | 268° |
| 2026-04-26 15:03 | 48.94722 | -54.57117 | 466 ft | 4 kts | 274° |
| 2026-04-26 15:04 | 48.94715 | -54.57139 | 465 ft | 2 kts | 219° |
| 2026-04-26 15:04 | 48.94698 | -54.57135 | 465 ft | 4 kts | 158° |
| 2026-04-26 15:04 | 48.94666 | -54.57111 | 467 ft | 6 kts | 155° |
| 2026-04-26 15:04 | 48.94662 | -54.57109 | 467 ft | 0 kts | 155° |